sensor_id;sensor_type;location;lat;lon;timestamp;P1;durP1;ratioP1;P2;durP2;ratioP2
4422;SDS011;2224;49.814;8.650;2023-09-12T00:00:30;12.33;;;8.70;;
4422;SDS011;2224;49.814;8.650;2023-09-12T00:02:56;12.27;;;8.77;;
4422;SDS011;2224;49.814;8.650;2023-09-12T00:05:21;16.10;;;8.50;;
4422;SDS011;2224;49.814;8.650;2023-09-12T00:07:46;10.67;;;8.30;;
4422;SDS011;2224;49.814;8.650;2023-09-12T00:10:12;13.83;;;9.30;;
4422;SDS011;2224;49.814;8.650;2023-09-12T00:12:37;13.53;;;8.47;;
4422;SDS011;2224;49.814;8.650;2023-09-12T00:15:02;12.90;;;9.00;;
4422;SDS011;2224;49.814;8.650;2023-09-12T00:17:29;9.80;;;8.17;;
4422;SDS011;2224;49.814;8.650;2023-09-12T00:19:54;11.90;;;8.30;;
4422;SDS011;2224;49.814;8.650;2023-09-12T00:22:20;11.87;;;9.50;;
4422;SDS011;2224;49.814;8.650;2023-09-12T00:24:45;14.57;;;8.90;;
4422;SDS011;2224;49.814;8.650;2023-09-12T00:27:10;11.27;;;8.70;;
4422;SDS011;2224;49.814;8.650;2023-09-12T00:29:35;10.27;;;8.00;;
4422;SDS011;2224;49.814;8.650;2023-09-12T00:32:01;10.50;;;8.50;;
4422;SDS011;2224;49.814;8.650;2023-09-12T00:34:26;15.77;;;9.30;;
4422;SDS011;2224;49.814;8.650;2023-09-12T00:36:51;11.33;;;8.70;;
4422;SDS011;2224;49.814;8.650;2023-09-12T00:39:17;12.90;;;8.40;;
4422;SDS011;2224;49.814;8.650;2023-09-12T00:41:42;12.00;;;8.07;;
4422;SDS011;2224;49.814;8.650;2023-09-12T00:44:07;14.57;;;9.00;;
4422;SDS011;2224;49.814;8.650;2023-09-12T00:46:33;13.57;;;8.60;;
4422;SDS011;2224;49.814;8.650;2023-09-12T00:48:59;18.97;;;8.67;;
4422;SDS011;2224;49.814;8.650;2023-09-12T00:51:25;16.03;;;9.10;;
4422;SDS011;2224;49.814;8.650;2023-09-12T00:53:51;12.53;;;8.70;;
4422;SDS011;2224;49.814;8.650;2023-09-12T00:56:16;12.67;;;9.20;;
4422;SDS011;2224;49.814;8.650;2023-09-12T00:58:42;16.23;;;9.00;;
4422;SDS011;2224;49.814;8.650;2023-09-12T01:01:07;9.20;;;8.30;;
4422;SDS011;2224;49.814;8.650;2023-09-12T01:03:33;9.93;;;7.63;;
4422;SDS011;2224;49.814;8.650;2023-09-12T01:05:59;14.40;;;8.93;;
4422;SDS011;2224;49.814;8.650;2023-09-12T01:08:25;14.33;;;7.93;;
4422;SDS011;2224;49.814;8.650;2023-09-12T01:10:51;12.07;;;8.50;;
4422;SDS011;2224;49.814;8.650;2023-09-12T01:13:18;11.93;;;8.50;;
4422;SDS011;2224;49.814;8.650;2023-09-12T01:15:43;11.20;;;8.03;;
4422;SDS011;2224;49.814;8.650;2023-09-12T01:18:08;11.67;;;8.63;;
4422;SDS011;2224;49.814;8.650;2023-09-12T01:20:34;12.00;;;8.37;;
4422;SDS011;2224;49.814;8.650;2023-09-12T01:28:18;10.63;;;8.40;;
4422;SDS011;2224;49.814;8.650;2023-09-12T01:30:45;11.90;;;8.47;;
4422;SDS011;2224;49.814;8.650;2023-09-12T01:33:13;13.77;;;9.00;;
4422;SDS011;2224;49.814;8.650;2023-09-12T01:35:39;12.43;;;8.63;;
4422;SDS011;2224;49.814;8.650;2023-09-12T01:38:04;8.83;;;7.97;;
4422;SDS011;2224;49.814;8.650;2023-09-12T01:40:34;13.27;;;9.10;;
4422;SDS011;2224;49.814;8.650;2023-09-12T01:43:04;14.27;;;8.93;;
4422;SDS011;2224;49.814;8.650;2023-09-12T01:45:31;12.00;;;8.00;;
4422;SDS011;2224;49.814;8.650;2023-09-12T01:47:56;10.23;;;8.53;;
4422;SDS011;2224;49.814;8.650;2023-09-12T01:50:23;15.30;;;8.97;;
4422;SDS011;2224;49.814;8.650;2023-09-12T01:52:50;15.80;;;8.90;;
4422;SDS011;2224;49.814;8.650;2023-09-12T01:55:16;15.63;;;9.63;;
4422;SDS011;2224;49.814;8.650;2023-09-12T01:57:42;13.00;;;8.27;;
4422;SDS011;2224;49.814;8.650;2023-09-12T02:00:07;14.03;;;9.50;;
4422;SDS011;2224;49.814;8.650;2023-09-12T02:02:34;13.73;;;9.27;;
4422;SDS011;2224;49.814;8.650;2023-09-12T02:07:38;9.87;;;8.27;;
4422;SDS011;2224;49.814;8.650;2023-09-12T02:10:05;13.50;;;8.83;;
4422;SDS011;2224;49.814;8.650;2023-09-12T02:12:31;10.93;;;8.53;;
4422;SDS011;2224;49.814;8.650;2023-09-12T02:14:56;10.53;;;8.90;;
4422;SDS011;2224;49.814;8.650;2023-09-12T02:17:22;21.60;;;9.07;;
4422;SDS011;2224;49.814;8.650;2023-09-12T02:19:47;13.57;;;8.90;;
4422;SDS011;2224;49.814;8.650;2023-09-12T02:22:13;11.93;;;8.70;;
4422;SDS011;2224;49.814;8.650;2023-09-12T02:24:38;14.70;;;9.20;;
4422;SDS011;2224;49.814;8.650;2023-09-12T02:27:04;16.30;;;8.93;;
4422;SDS011;2224;49.814;8.650;2023-09-12T02:29:29;10.83;;;8.83;;
4422;SDS011;2224;49.814;8.650;2023-09-12T02:31:56;16.27;;;9.20;;
4422;SDS011;2224;49.814;8.650;2023-09-12T02:34:21;11.20;;;9.07;;
4422;SDS011;2224;49.814;8.650;2023-09-12T02:36:46;11.00;;;9.37;;
4422;SDS011;2224;49.814;8.650;2023-09-12T02:39:12;13.30;;;9.53;;
4422;SDS011;2224;49.814;8.650;2023-09-12T02:41:37;13.23;;;9.00;;
4422;SDS011;2224;49.814;8.650;2023-09-12T02:44:02;10.97;;;9.63;;
4422;SDS011;2224;49.814;8.650;2023-09-12T02:46:28;19.70;;;10.00;;
4422;SDS011;2224;49.814;8.650;2023-09-12T02:48:53;16.77;;;9.13;;
4422;SDS011;2224;49.814;8.650;2023-09-12T02:51:18;11.63;;;9.67;;
4422;SDS011;2224;49.814;8.650;2023-09-12T02:53:44;17.63;;;9.23;;
4422;SDS011;2224;49.814;8.650;2023-09-12T02:56:09;13.47;;;9.87;;
4422;SDS011;2224;49.814;8.650;2023-09-12T02:58:34;16.97;;;9.67;;
4422;SDS011;2224;49.814;8.650;2023-09-12T03:01:00;19.43;;;10.40;;
4422;SDS011;2224;49.814;8.650;2023-09-12T03:03:26;14.93;;;9.57;;
4422;SDS011;2224;49.814;8.650;2023-09-12T03:05:58;14.97;;;9.90;;
4422;SDS011;2224;49.814;8.650;2023-09-12T03:08:28;13.03;;;9.23;;
4422;SDS011;2224;49.814;8.650;2023-09-12T03:10:57;14.20;;;9.30;;
4422;SDS011;2224;49.814;8.650;2023-09-12T03:13:25;16.27;;;10.33;;
4422;SDS011;2224;49.814;8.650;2023-09-12T03:15:51;14.60;;;10.20;;
4422;SDS011;2224;49.814;8.650;2023-09-12T03:18:17;13.73;;;9.33;;
4422;SDS011;2224;49.814;8.650;2023-09-12T03:20:42;19.70;;;9.63;;
4422;SDS011;2224;49.814;8.650;2023-09-12T03:23:07;13.53;;;10.27;;
4422;SDS011;2224;49.814;8.650;2023-09-12T03:25:36;12.17;;;10.60;;
4422;SDS011;2224;49.814;8.650;2023-09-12T03:28:03;16.77;;;8.93;;
4422;SDS011;2224;49.814;8.650;2023-09-12T03:30:29;13.77;;;9.00;;
4422;SDS011;2224;49.814;8.650;2023-09-12T03:32:54;15.30;;;10.07;;
4422;SDS011;2224;49.814;8.650;2023-09-12T03:35:19;14.80;;;9.73;;
4422;SDS011;2224;49.814;8.650;2023-09-12T03:37:45;15.60;;;9.53;;
4422;SDS011;2224;49.814;8.650;2023-09-12T03:40:10;14.23;;;10.30;;
4422;SDS011;2224;49.814;8.650;2023-09-12T03:42:36;15.30;;;9.20;;
4422;SDS011;2224;49.814;8.650;2023-09-12T03:45:01;14.40;;;10.37;;
4422;SDS011;2224;49.814;8.650;2023-09-12T03:47:27;13.63;;;9.13;;
4422;SDS011;2224;49.814;8.650;2023-09-12T03:49:53;16.97;;;10.30;;
4422;SDS011;2224;49.814;8.650;2023-09-12T03:52:18;12.23;;;9.20;;
4422;SDS011;2224;49.814;8.650;2023-09-12T03:54:43;11.87;;;9.17;;
4422;SDS011;2224;49.814;8.650;2023-09-12T03:57:08;16.03;;;9.40;;
4422;SDS011;2224;49.814;8.650;2023-09-12T03:59:34;10.27;;;9.20;;
4422;SDS011;2224;49.814;8.650;2023-09-12T04:02:01;16.70;;;9.40;;
4422;SDS011;2224;49.814;8.650;2023-09-12T04:04:26;13.67;;;10.47;;
4422;SDS011;2224;49.814;8.650;2023-09-12T04:06:52;13.83;;;10.43;;
4422;SDS011;2224;49.814;8.650;2023-09-12T04:09:17;13.80;;;10.17;;
4422;SDS011;2224;49.814;8.650;2023-09-12T04:11:43;12.27;;;9.60;;
4422;SDS011;2224;49.814;8.650;2023-09-12T04:14:08;10.40;;;9.27;;
4422;SDS011;2224;49.814;8.650;2023-09-12T04:16:33;14.27;;;9.93;;
4422;SDS011;2224;49.814;8.650;2023-09-12T04:18:59;13.87;;;9.33;;
4422;SDS011;2224;49.814;8.650;2023-09-12T04:21:24;12.27;;;8.77;;
4422;SDS011;2224;49.814;8.650;2023-09-12T04:23:49;14.50;;;9.60;;
4422;SDS011;2224;49.814;8.650;2023-09-12T04:26:15;13.10;;;8.33;;
4422;SDS011;2224;49.814;8.650;2023-09-12T04:28:40;14.00;;;10.77;;
4422;SDS011;2224;49.814;8.650;2023-09-12T04:31:06;11.10;;;8.70;;
4422;SDS011;2224;49.814;8.650;2023-09-12T04:33:31;14.53;;;9.57;;
4422;SDS011;2224;49.814;8.650;2023-09-12T04:36:00;13.00;;;8.80;;
4422;SDS011;2224;49.814;8.650;2023-09-12T04:38:26;16.97;;;9.90;;
4422;SDS011;2224;49.814;8.650;2023-09-12T04:40:59;12.23;;;9.17;;
4422;SDS011;2224;49.814;8.650;2023-09-12T04:43:29;16.43;;;10.27;;
4422;SDS011;2224;49.814;8.650;2023-09-12T04:45:55;13.60;;;9.50;;
4422;SDS011;2224;49.814;8.650;2023-09-12T04:48:20;14.30;;;10.10;;
4422;SDS011;2224;49.814;8.650;2023-09-12T04:50:46;14.53;;;9.90;;
4422;SDS011;2224;49.814;8.650;2023-09-12T04:53:11;12.53;;;9.43;;
4422;SDS011;2224;49.814;8.650;2023-09-12T04:55:36;16.77;;;9.30;;
4422;SDS011;2224;49.814;8.650;2023-09-12T04:58:02;15.57;;;10.10;;
4422;SDS011;2224;49.814;8.650;2023-09-12T05:00:28;15.47;;;9.57;;
4422;SDS011;2224;49.814;8.650;2023-09-12T05:02:54;14.23;;;8.73;;
4422;SDS011;2224;49.814;8.650;2023-09-12T05:05:19;12.40;;;10.30;;
4422;SDS011;2224;49.814;8.650;2023-09-12T05:07:44;11.67;;;9.73;;
4422;SDS011;2224;49.814;8.650;2023-09-12T05:10:10;12.77;;;9.50;;
4422;SDS011;2224;49.814;8.650;2023-09-12T05:12:35;13.93;;;8.83;;
4422;SDS011;2224;49.814;8.650;2023-09-12T05:15:00;14.27;;;10.30;;
4422;SDS011;2224;49.814;8.650;2023-09-12T05:17:26;17.40;;;9.80;;
4422;SDS011;2224;49.814;8.650;2023-09-12T05:19:52;13.87;;;9.70;;
4422;SDS011;2224;49.814;8.650;2023-09-12T05:22:18;11.07;;;9.63;;
4422;SDS011;2224;49.814;8.650;2023-09-12T05:24:43;11.27;;;9.53;;
4422;SDS011;2224;49.814;8.650;2023-09-12T05:27:09;12.20;;;9.30;;
4422;SDS011;2224;49.814;8.650;2023-09-12T05:29:34;13.10;;;10.43;;
4422;SDS011;2224;49.814;8.650;2023-09-12T05:31:59;11.47;;;9.67;;
4422;SDS011;2224;49.814;8.650;2023-09-12T05:34:24;10.20;;;9.00;;
4422;SDS011;2224;49.814;8.650;2023-09-12T05:36:50;15.00;;;9.43;;
4422;SDS011;2224;49.814;8.650;2023-09-12T05:39:15;13.43;;;9.03;;
4422;SDS011;2224;49.814;8.650;2023-09-12T05:41:40;12.47;;;9.63;;
4422;SDS011;2224;49.814;8.650;2023-09-12T05:44:06;10.03;;;9.00;;
4422;SDS011;2224;49.814;8.650;2023-09-12T05:46:31;17.80;;;9.70;;
4422;SDS011;2224;49.814;8.650;2023-09-12T05:48:56;15.03;;;9.63;;
4422;SDS011;2224;49.814;8.650;2023-09-12T05:51:22;14.60;;;9.13;;
4422;SDS011;2224;49.814;8.650;2023-09-12T05:53:47;12.27;;;8.80;;
4422;SDS011;2224;49.814;8.650;2023-09-12T05:56:12;13.87;;;9.80;;
4422;SDS011;2224;49.814;8.650;2023-09-12T05:58:38;17.07;;;10.03;;
4422;SDS011;2224;49.814;8.650;2023-09-12T06:01:07;13.83;;;11.07;;
4422;SDS011;2224;49.814;8.650;2023-09-12T06:03:33;15.67;;;9.97;;
4422;SDS011;2224;49.814;8.650;2023-09-12T06:05:58;16.23;;;10.80;;
4422;SDS011;2224;49.814;8.650;2023-09-12T06:08:23;14.23;;;9.70;;
4422;SDS011;2224;49.814;8.650;2023-09-12T06:10:49;13.90;;;9.17;;
4422;SDS011;2224;49.814;8.650;2023-09-12T06:13:18;15.67;;;10.57;;
4422;SDS011;2224;49.814;8.650;2023-09-12T06:15:44;16.53;;;11.80;;
4422;SDS011;2224;49.814;8.650;2023-09-12T06:18:09;15.40;;;12.47;;
4422;SDS011;2224;49.814;8.650;2023-09-12T06:20:34;20.50;;;11.70;;
4422;SDS011;2224;49.814;8.650;2023-09-12T06:23:00;13.63;;;11.50;;
4422;SDS011;2224;49.814;8.650;2023-09-12T06:25:25;17.27;;;12.13;;
4422;SDS011;2224;49.814;8.650;2023-09-12T06:27:50;13.60;;;12.00;;
4422;SDS011;2224;49.814;8.650;2023-09-12T06:30:16;17.57;;;11.70;;
4422;SDS011;2224;49.814;8.650;2023-09-12T06:32:41;13.90;;;11.20;;
4422;SDS011;2224;49.814;8.650;2023-09-12T06:35:06;17.07;;;11.50;;
4422;SDS011;2224;49.814;8.650;2023-09-12T06:37:32;16.60;;;12.40;;
4422;SDS011;2224;49.814;8.650;2023-09-12T06:39:58;17.10;;;12.03;;
4422;SDS011;2224;49.814;8.650;2023-09-12T06:42:23;21.57;;;11.20;;
4422;SDS011;2224;49.814;8.650;2023-09-12T06:44:48;17.97;;;11.37;;
4422;SDS011;2224;49.814;8.650;2023-09-12T06:47:14;18.73;;;11.73;;
4422;SDS011;2224;49.814;8.650;2023-09-12T06:49:39;13.83;;;12.23;;
4422;SDS011;2224;49.814;8.650;2023-09-12T06:52:05;17.50;;;12.40;;
4422;SDS011;2224;49.814;8.650;2023-09-12T06:54:30;19.23;;;11.43;;
4422;SDS011;2224;49.814;8.650;2023-09-12T06:56:56;13.70;;;12.30;;
4422;SDS011;2224;49.814;8.650;2023-09-12T06:59:22;19.00;;;12.70;;
4422;SDS011;2224;49.814;8.650;2023-09-12T07:01:47;14.23;;;11.10;;
4422;SDS011;2224;49.814;8.650;2023-09-12T07:04:13;18.70;;;13.03;;
4422;SDS011;2224;49.814;8.650;2023-09-12T07:06:38;16.43;;;12.43;;
4422;SDS011;2224;49.814;8.650;2023-09-12T07:09:03;14.77;;;12.00;;
4422;SDS011;2224;49.814;8.650;2023-09-12T07:11:29;19.77;;;13.17;;
4422;SDS011;2224;49.814;8.650;2023-09-12T07:13:55;15.07;;;12.50;;
4422;SDS011;2224;49.814;8.650;2023-09-12T07:16:20;22.30;;;12.90;;
4422;SDS011;2224;49.814;8.650;2023-09-12T07:18:45;16.20;;;13.13;;
4422;SDS011;2224;49.814;8.650;2023-09-12T07:21:11;24.60;;;14.20;;
4422;SDS011;2224;49.814;8.650;2023-09-12T07:23:37;21.43;;;12.33;;
4422;SDS011;2224;49.814;8.650;2023-09-12T07:26:02;20.37;;;13.80;;
4422;SDS011;2224;49.814;8.650;2023-09-12T07:28:29;21.60;;;14.63;;
4422;SDS011;2224;49.814;8.650;2023-09-12T07:30:55;18.10;;;13.70;;
4422;SDS011;2224;49.814;8.650;2023-09-12T07:33:20;18.63;;;13.70;;
4422;SDS011;2224;49.814;8.650;2023-09-12T07:35:46;18.63;;;13.67;;
4422;SDS011;2224;49.814;8.650;2023-09-12T07:38:12;18.90;;;13.60;;
4422;SDS011;2224;49.814;8.650;2023-09-12T07:40:40;16.90;;;13.40;;
4422;SDS011;2224;49.814;8.650;2023-09-12T07:43:06;15.77;;;12.27;;
4422;SDS011;2224;49.814;8.650;2023-09-12T07:45:32;17.60;;;13.07;;
4422;SDS011;2224;49.814;8.650;2023-09-12T07:48:02;14.23;;;11.63;;
4422;SDS011;2224;49.814;8.650;2023-09-12T07:50:29;17.43;;;11.47;;
4422;SDS011;2224;49.814;8.650;2023-09-12T07:52:54;14.90;;;11.50;;
4422;SDS011;2224;49.814;8.650;2023-09-12T07:55:19;15.37;;;11.03;;
4422;SDS011;2224;49.814;8.650;2023-09-12T07:57:45;14.53;;;12.70;;
4422;SDS011;2224;49.814;8.650;2023-09-12T08:00:10;19.93;;;12.33;;
4422;SDS011;2224;49.814;8.650;2023-09-12T08:02:36;14.47;;;12.87;;
4422;SDS011;2224;49.814;8.650;2023-09-12T08:05:01;17.70;;;13.27;;
4422;SDS011;2224;49.814;8.650;2023-09-12T08:07:27;17.17;;;12.50;;
4422;SDS011;2224;49.814;8.650;2023-09-12T08:09:53;16.10;;;12.27;;
4422;SDS011;2224;49.814;8.650;2023-09-12T08:12:22;17.03;;;12.20;;
4422;SDS011;2224;49.814;8.650;2023-09-12T08:14:49;19.20;;;13.70;;
4422;SDS011;2224;49.814;8.650;2023-09-12T08:17:14;16.73;;;13.77;;
4422;SDS011;2224;49.814;8.650;2023-09-12T08:19:40;18.47;;;14.03;;
4422;SDS011;2224;49.814;8.650;2023-09-12T08:22:06;17.67;;;13.97;;
4422;SDS011;2224;49.814;8.650;2023-09-12T08:24:35;22.37;;;13.27;;
4422;SDS011;2224;49.814;8.650;2023-09-12T08:27:01;19.43;;;14.03;;
4422;SDS011;2224;49.814;8.650;2023-09-12T08:29:27;18.53;;;14.13;;
4422;SDS011;2224;49.814;8.650;2023-09-12T08:31:53;19.47;;;13.80;;
4422;SDS011;2224;49.814;8.650;2023-09-12T08:34:19;16.20;;;13.67;;
4422;SDS011;2224;49.814;8.650;2023-09-12T08:36:45;21.13;;;14.37;;
4422;SDS011;2224;49.814;8.650;2023-09-12T08:39:13;22.77;;;13.77;;
4422;SDS011;2224;49.814;8.650;2023-09-12T08:41:41;25.03;;;14.30;;
4422;SDS011;2224;49.814;8.650;2023-09-12T08:44:06;21.07;;;15.10;;
4422;SDS011;2224;49.814;8.650;2023-09-12T08:46:32;23.07;;;14.63;;
4422;SDS011;2224;49.814;8.650;2023-09-12T08:48:57;24.90;;;14.33;;
4422;SDS011;2224;49.814;8.650;2023-09-12T08:51:23;22.90;;;13.67;;
4422;SDS011;2224;49.814;8.650;2023-09-12T08:53:49;16.43;;;13.50;;
4422;SDS011;2224;49.814;8.650;2023-09-12T08:56:17;20.77;;;13.67;;
4422;SDS011;2224;49.814;8.650;2023-09-12T08:58:44;16.63;;;12.60;;
4422;SDS011;2224;49.814;8.650;2023-09-12T09:01:09;19.47;;;13.03;;
4422;SDS011;2224;49.814;8.650;2023-09-12T09:03:38;15.33;;;12.43;;
4422;SDS011;2224;49.814;8.650;2023-09-12T09:06:04;16.90;;;11.57;;
4422;SDS011;2224;49.814;8.650;2023-09-12T09:08:30;14.90;;;11.53;;
4422;SDS011;2224;49.814;8.650;2023-09-12T09:10:59;16.73;;;12.73;;
4422;SDS011;2224;49.814;8.650;2023-09-12T09:13:28;16.03;;;11.50;;
4422;SDS011;2224;49.814;8.650;2023-09-12T09:21:35;16.60;;;11.57;;
4422;SDS011;2224;49.814;8.650;2023-09-12T09:24:03;18.47;;;12.00;;
4422;SDS011;2224;49.814;8.650;2023-09-12T09:26:44;17.60;;;12.53;;
4422;SDS011;2224;49.814;8.650;2023-09-12T09:29:13;15.77;;;11.87;;
4422;SDS011;2224;49.814;8.650;2023-09-12T09:31:42;15.90;;;11.30;;
4422;SDS011;2224;49.814;8.650;2023-09-12T09:34:13;15.47;;;11.40;;
4422;SDS011;2224;49.814;8.650;2023-09-12T09:36:57;16.17;;;12.03;;
4422;SDS011;2224;49.814;8.650;2023-09-12T09:39:24;16.60;;;12.33;;
4422;SDS011;2224;49.814;8.650;2023-09-12T09:41:51;19.53;;;11.60;;
4422;SDS011;2224;49.814;8.650;2023-09-12T09:44:18;19.07;;;13.10;;
4422;SDS011;2224;49.814;8.650;2023-09-12T09:46:44;16.73;;;11.53;;
4422;SDS011;2224;49.814;8.650;2023-09-12T09:49:10;13.77;;;10.60;;
4422;SDS011;2224;49.814;8.650;2023-09-12T09:51:42;18.30;;;11.80;;
4422;SDS011;2224;49.814;8.650;2023-09-12T09:54:11;20.13;;;12.47;;
4422;SDS011;2224;49.814;8.650;2023-09-12T09:56:46;17.33;;;11.97;;
4422;SDS011;2224;49.814;8.650;2023-09-12T09:59:20;17.90;;;11.13;;
4422;SDS011;2224;49.814;8.650;2023-09-12T10:01:48;14.77;;;12.30;;
4422;SDS011;2224;49.814;8.650;2023-09-12T10:04:14;14.73;;;12.10;;
4422;SDS011;2224;49.814;8.650;2023-09-12T10:06:41;14.97;;;12.27;;
4422;SDS011;2224;49.814;8.650;2023-09-12T10:09:09;13.07;;;11.73;;
4422;SDS011;2224;49.814;8.650;2023-09-12T10:11:35;17.03;;;11.40;;
4422;SDS011;2224;49.814;8.650;2023-09-12T10:14:03;21.77;;;13.10;;
4422;SDS011;2224;49.814;8.650;2023-09-12T10:16:36;18.90;;;12.30;;
4422;SDS011;2224;49.814;8.650;2023-09-12T10:21:42;15.53;;;12.70;;
4422;SDS011;2224;49.814;8.650;2023-09-12T10:24:11;12.87;;;11.40;;
4422;SDS011;2224;49.814;8.650;2023-09-12T10:26:37;17.00;;;12.40;;
4422;SDS011;2224;49.814;8.650;2023-09-12T10:29:07;15.60;;;12.33;;
4422;SDS011;2224;49.814;8.650;2023-09-12T10:31:33;15.80;;;13.07;;
4422;SDS011;2224;49.814;8.650;2023-09-12T10:33:59;24.10;;;12.83;;
4422;SDS011;2224;49.814;8.650;2023-09-12T10:36:26;14.80;;;13.40;;
4422;SDS011;2224;49.814;8.650;2023-09-12T10:38:51;17.60;;;12.93;;
4422;SDS011;2224;49.814;8.650;2023-09-12T10:41:17;14.43;;;12.53;;
4422;SDS011;2224;49.814;8.650;2023-09-12T10:43:44;14.07;;;12.60;;
4422;SDS011;2224;49.814;8.650;2023-09-12T10:46:15;16.30;;;12.40;;
4422;SDS011;2224;49.814;8.650;2023-09-12T10:48:40;15.27;;;13.13;;
4422;SDS011;2224;49.814;8.650;2023-09-12T10:51:06;17.90;;;13.50;;
4422;SDS011;2224;49.814;8.650;2023-09-12T10:53:32;15.83;;;13.60;;
4422;SDS011;2224;49.814;8.650;2023-09-12T10:55:59;14.23;;;12.90;;
4422;SDS011;2224;49.814;8.650;2023-09-12T10:58:26;16.67;;;13.00;;
4422;SDS011;2224;49.814;8.650;2023-09-12T11:01:21;18.83;;;13.57;;
4422;SDS011;2224;49.814;8.650;2023-09-12T11:03:50;13.37;;;11.90;;
4422;SDS011;2224;49.814;8.650;2023-09-12T11:06:22;18.93;;;12.47;;
4422;SDS011;2224;49.814;8.650;2023-09-12T11:11:39;15.33;;;12.60;;
4422;SDS011;2224;49.814;8.650;2023-09-12T11:14:06;13.77;;;12.23;;
4422;SDS011;2224;49.814;8.650;2023-09-12T11:16:32;17.77;;;12.53;;
4422;SDS011;2224;49.814;8.650;2023-09-12T11:19:17;17.70;;;11.67;;
4422;SDS011;2224;49.814;8.650;2023-09-12T11:21:49;14.70;;;12.93;;
4422;SDS011;2224;49.814;8.650;2023-09-12T11:24:15;12.43;;;11.23;;
4422;SDS011;2224;49.814;8.650;2023-09-12T11:29:29;13.30;;;11.90;;
4422;SDS011;2224;49.814;8.650;2023-09-12T11:31:56;17.23;;;11.43;;
4422;SDS011;2224;49.814;8.650;2023-09-12T11:34:24;16.20;;;12.47;;
4422;SDS011;2224;49.814;8.650;2023-09-12T11:36:56;12.40;;;11.20;;
4422;SDS011;2224;49.814;8.650;2023-09-12T11:39:23;12.57;;;11.20;;
4422;SDS011;2224;49.814;8.650;2023-09-12T11:41:50;13.70;;;12.40;;
4422;SDS011;2224;49.814;8.650;2023-09-12T11:44:15;14.57;;;12.33;;
4422;SDS011;2224;49.814;8.650;2023-09-12T11:46:41;16.30;;;12.60;;
4422;SDS011;2224;49.814;8.650;2023-09-12T11:49:06;15.47;;;11.60;;
4422;SDS011;2224;49.814;8.650;2023-09-12T11:51:32;16.20;;;13.73;;
4422;SDS011;2224;49.814;8.650;2023-09-12T11:53:57;17.07;;;13.77;;
4422;SDS011;2224;49.814;8.650;2023-09-12T11:56:24;14.97;;;13.43;;
4422;SDS011;2224;49.814;8.650;2023-09-12T11:58:50;20.90;;;13.93;;
4422;SDS011;2224;49.814;8.650;2023-09-12T12:01:15;12.97;;;11.60;;
4422;SDS011;2224;49.814;8.650;2023-09-12T12:03:40;15.10;;;12.23;;
4422;SDS011;2224;49.814;8.650;2023-09-12T12:06:06;14.43;;;12.10;;
4422;SDS011;2224;49.814;8.650;2023-09-12T12:08:31;14.93;;;12.20;;
4422;SDS011;2224;49.814;8.650;2023-09-12T12:10:57;13.77;;;11.93;;
4422;SDS011;2224;49.814;8.650;2023-09-12T12:13:25;13.60;;;12.20;;
4422;SDS011;2224;49.814;8.650;2023-09-12T12:15:52;15.50;;;12.50;;
4422;SDS011;2224;49.814;8.650;2023-09-12T12:18:18;15.70;;;13.40;;
4422;SDS011;2224;49.814;8.650;2023-09-12T12:20:43;18.13;;;12.70;;
4422;SDS011;2224;49.814;8.650;2023-09-12T12:23:09;14.20;;;12.80;;
4422;SDS011;2224;49.814;8.650;2023-09-12T12:25:34;18.27;;;13.60;;
4422;SDS011;2224;49.814;8.650;2023-09-12T12:28:00;18.90;;;13.57;;
4422;SDS011;2224;49.814;8.650;2023-09-12T12:30:29;16.43;;;13.87;;
4422;SDS011;2224;49.814;8.650;2023-09-12T12:32:55;14.50;;;13.03;;
4422;SDS011;2224;49.814;8.650;2023-09-12T12:35:21;14.07;;;12.57;;
4422;SDS011;2224;49.814;8.650;2023-09-12T12:37:55;15.03;;;12.90;;
4422;SDS011;2224;49.814;8.650;2023-09-12T12:40:23;16.00;;;13.80;;
4422;SDS011;2224;49.814;8.650;2023-09-12T12:42:50;15.20;;;13.50;;
4422;SDS011;2224;49.814;8.650;2023-09-12T12:45:16;13.80;;;12.60;;
4422;SDS011;2224;49.814;8.650;2023-09-12T12:47:45;15.90;;;14.17;;
4422;SDS011;2224;49.814;8.650;2023-09-12T12:50:14;14.10;;;12.70;;
4422;SDS011;2224;49.814;8.650;2023-09-12T12:52:40;16.63;;;13.80;;
4422;SDS011;2224;49.814;8.650;2023-09-12T12:55:09;16.20;;;13.90;;
4422;SDS011;2224;49.814;8.650;2023-09-12T12:57:39;19.03;;;12.83;;
4422;SDS011;2224;49.814;8.650;2023-09-12T13:00:09;17.47;;;13.40;;
4422;SDS011;2224;49.814;8.650;2023-09-12T13:02:36;17.70;;;13.10;;
4422;SDS011;2224;49.814;8.650;2023-09-12T13:05:02;14.63;;;12.60;;
4422;SDS011;2224;49.814;8.650;2023-09-12T13:07:28;12.30;;;11.00;;
4422;SDS011;2224;49.814;8.650;2023-09-12T13:09:53;18.07;;;12.90;;
4422;SDS011;2224;49.814;8.650;2023-09-12T13:12:18;13.50;;;11.00;;
4422;SDS011;2224;49.814;8.650;2023-09-12T13:14:44;14.03;;;11.13;;
4422;SDS011;2224;49.814;8.650;2023-09-12T13:17:09;14.90;;;10.80;;
4422;SDS011;2224;49.814;8.650;2023-09-12T13:19:35;14.27;;;12.30;;
4422;SDS011;2224;49.814;8.650;2023-09-12T13:22:00;14.30;;;11.47;;
4422;SDS011;2224;49.814;8.650;2023-09-12T13:24:26;13.93;;;12.53;;
4422;SDS011;2224;49.814;8.650;2023-09-12T13:26:51;15.43;;;11.03;;
4422;SDS011;2224;49.814;8.650;2023-09-12T13:29:17;12.60;;;9.50;;
4422;SDS011;2224;49.814;8.650;2023-09-12T13:31:43;12.50;;;11.27;;
4422;SDS011;2224;49.814;8.650;2023-09-12T13:34:08;15.60;;;11.63;;
4422;SDS011;2224;49.814;8.650;2023-09-12T13:36:34;12.60;;;11.30;;
4422;SDS011;2224;49.814;8.650;2023-09-12T13:38:59;14.20;;;11.20;;
4422;SDS011;2224;49.814;8.650;2023-09-12T13:41:24;12.67;;;10.30;;
4422;SDS011;2224;49.814;8.650;2023-09-12T13:43:50;12.87;;;10.40;;
4422;SDS011;2224;49.814;8.650;2023-09-12T13:46:15;10.90;;;9.83;;
4422;SDS011;2224;49.814;8.650;2023-09-12T13:48:41;13.33;;;11.70;;
4422;SDS011;2224;49.814;8.650;2023-09-12T13:51:06;12.47;;;11.17;;
4422;SDS011;2224;49.814;8.650;2023-09-12T13:53:32;16.33;;;11.87;;
4422;SDS011;2224;49.814;8.650;2023-09-12T13:55:57;11.47;;;10.27;;
4422;SDS011;2224;49.814;8.650;2023-09-12T13:58:23;14.33;;;11.00;;
4422;SDS011;2224;49.814;8.650;2023-09-12T14:00:48;12.73;;;10.03;;
4422;SDS011;2224;49.814;8.650;2023-09-12T14:03:14;12.23;;;9.73;;
4422;SDS011;2224;49.814;8.650;2023-09-12T14:05:40;10.53;;;9.23;;
4422;SDS011;2224;49.814;8.650;2023-09-12T14:08:05;12.07;;;9.30;;
4422;SDS011;2224;49.814;8.650;2023-09-12T14:10:31;11.67;;;9.30;;
4422;SDS011;2224;49.814;8.650;2023-09-12T14:12:56;10.47;;;9.57;;
4422;SDS011;2224;49.814;8.650;2023-09-12T14:15:21;9.93;;;8.50;;
4422;SDS011;2224;49.814;8.650;2023-09-12T14:17:47;9.80;;;8.90;;
4422;SDS011;2224;49.814;8.650;2023-09-12T14:20:12;10.87;;;9.03;;
4422;SDS011;2224;49.814;8.650;2023-09-12T14:22:40;13.97;;;9.13;;
4422;SDS011;2224;49.814;8.650;2023-09-12T14:25:06;11.03;;;9.63;;
4422;SDS011;2224;49.814;8.650;2023-09-12T14:27:32;10.50;;;9.40;;
4422;SDS011;2224;49.814;8.650;2023-09-12T14:29:58;12.43;;;10.10;;
4422;SDS011;2224;49.814;8.650;2023-09-12T14:32:24;13.33;;;10.20;;
4422;SDS011;2224;49.814;8.650;2023-09-12T14:34:49;13.50;;;9.10;;
4422;SDS011;2224;49.814;8.650;2023-09-12T14:37:15;13.30;;;9.40;;
4422;SDS011;2224;49.814;8.650;2023-09-12T14:39:40;9.83;;;8.83;;
4422;SDS011;2224;49.814;8.650;2023-09-12T14:42:05;10.83;;;9.00;;
4422;SDS011;2224;49.814;8.650;2023-09-12T14:44:33;9.57;;;8.60;;
4422;SDS011;2224;49.814;8.650;2023-09-12T14:47:02;10.07;;;9.10;;
4422;SDS011;2224;49.814;8.650;2023-09-12T14:49:27;10.07;;;8.17;;
4422;SDS011;2224;49.814;8.650;2023-09-12T14:51:53;9.80;;;8.83;;
4422;SDS011;2224;49.814;8.650;2023-09-12T14:54:18;9.67;;;8.77;;
4422;SDS011;2224;49.814;8.650;2023-09-12T14:56:44;10.90;;;8.77;;
4422;SDS011;2224;49.814;8.650;2023-09-12T14:59:09;10.53;;;9.10;;
4422;SDS011;2224;49.814;8.650;2023-09-12T15:01:34;14.07;;;7.97;;
4422;SDS011;2224;49.814;8.650;2023-09-12T15:04:01;9.70;;;8.70;;
4422;SDS011;2224;49.814;8.650;2023-09-12T15:06:27;9.40;;;7.60;;
4422;SDS011;2224;49.814;8.650;2023-09-12T15:08:52;9.37;;;8.47;;